createdAt,value
2018-09-30T00:02:27.440Z,6.80
2018-09-30T00:04:55.735Z,6.80
2018-09-30T00:07:24.029Z,6.60
2018-09-30T00:09:52.280Z,6.50
2018-09-30T00:12:20.551Z,6.60
2018-09-30T00:14:48.858Z,6.40
2018-09-30T00:17:17.134Z,6.40
2018-09-30T00:19:45.401Z,6.50
2018-09-30T00:22:13.661Z,6.50
2018-09-30T00:24:47.220Z,6.50
2018-09-30T00:27:18.453Z,6.70
2018-09-30T00:29:46.776Z,7.00
2018-09-30T00:32:15.147Z,7.20
2018-09-30T00:34:44.417Z,7.20
2018-09-30T00:37:12.710Z,7.20
2018-09-30T00:39:41.003Z,7.30
2018-09-30T00:42:09.297Z,7.30
2018-09-30T00:44:37.535Z,7.30
2018-09-30T00:47:05.815Z,7.10
2018-09-30T00:49:34.082Z,7.10
2018-09-30T00:52:02.377Z,7.00
2018-09-30T00:54:30.680Z,7.00
2018-09-30T00:56:58.968Z,6.80
2018-09-30T00:59:27.223Z,6.80
2018-09-30T01:01:55.569Z,6.80
2018-09-30T01:04:23.846Z,6.80
2018-09-30T01:06:52.161Z,6.90
2018-09-30T01:09:20.409Z,6.80
2018-09-30T01:11:48.735Z,6.90
2018-09-30T01:14:17.016Z,6.90
2018-09-30T01:16:45.249Z,6.90
2018-09-30T01:19:13.562Z,6.90
2018-09-30T01:21:41.805Z,6.90
2018-09-30T01:24:10.096Z,7.00
2018-09-30T01:26:38.318Z,7.00
2018-09-30T01:29:06.595Z,7.10
2018-09-30T01:31:35.628Z,7.00
2018-09-30T01:34:03.959Z,7.10
2018-09-30T01:36:32.214Z,7.00
2018-09-30T01:39:00.508Z,6.80
2018-09-30T01:41:28.763Z,7.00
2018-09-30T01:43:57.222Z,6.80
2018-09-30T01:46:25.468Z,6.80
2018-09-30T01:48:53.756Z,6.60
2018-09-30T01:51:22.052Z,6.00
2018-09-30T01:53:50.280Z,5.80
2018-09-30T01:56:18.574Z,5.90
2018-09-30T01:58:46.844Z,6.00
2018-09-30T02:03:49.982Z,5.40
2018-09-30T02:06:18.229Z,4.90
2018-09-30T02:08:46.494Z,4.70
2018-09-30T02:11:14.759Z,4.40
2018-09-30T02:13:43.042Z,4.70
2018-09-30T02:16:11.310Z,4.40
2018-09-30T02:18:39.615Z,4.10
2018-09-30T02:21:07.938Z,4.40
2018-09-30T02:23:36.195Z,4.80
2018-09-30T02:26:04.432Z,5.30
2018-09-30T02:28:32.696Z,5.50
2018-09-30T02:31:00.983Z,5.60
2018-09-30T02:33:29.283Z,5.80
2018-09-30T02:35:57.580Z,5.90
2018-09-30T02:38:25.884Z,5.90
2018-09-30T02:40:54.206Z,6.00
2018-09-30T02:43:22.448Z,6.10
2018-09-30T02:45:52.521Z,6.20
2018-09-30T02:48:20.941Z,6.20
2018-09-30T02:50:49.241Z,6.10
2018-09-30T02:53:17.539Z,5.90
2018-09-30T02:55:45.845Z,5.30
2018-09-30T02:58:14.111Z,5.20
2018-09-30T03:00:42.372Z,4.70
2018-09-30T03:03:10.721Z,4.10
2018-09-30T03:05:39.015Z,3.80
2018-09-30T03:08:12.785Z,4.20
2018-09-30T03:10:41.020Z,4.70
2018-09-30T03:13:09.318Z,5.10
2018-09-30T03:15:37.609Z,5.40
2018-09-30T03:18:06.156Z,5.60
2018-09-30T03:20:34.458Z,5.70
2018-09-30T03:23:02.741Z,5.80
2018-09-30T03:25:31.008Z,5.90
2018-09-30T03:27:59.323Z,5.80
2018-09-30T03:30:27.557Z,5.80
2018-09-30T03:32:55.866Z,5.80
2018-09-30T03:35:24.136Z,5.90
2018-09-30T03:37:52.380Z,5.70
2018-09-30T03:40:20.677Z,4.70
2018-09-30T03:42:49.448Z,4.20
2018-09-30T03:45:17.796Z,3.80
2018-09-30T03:47:46.108Z,3.70
2018-09-30T03:50:14.392Z,3.40
2018-09-30T03:52:42.685Z,3.00
2018-09-30T03:55:10.932Z,3.10
2018-09-30T03:57:39.243Z,3.60
2018-09-30T04:00:07.561Z,4.20
2018-09-30T04:02:35.814Z,4.50
2018-09-30T04:05:04.338Z,4.80
2018-09-30T04:07:32.661Z,5.00
2018-09-30T04:10:01.053Z,5.10
2018-09-30T04:12:29.397Z,5.30
2018-09-30T04:14:57.666Z,5.40
2018-09-30T04:17:26.024Z,5.50
2018-09-30T04:19:54.341Z,5.50
2018-09-30T04:22:22.644Z,5.60
2018-09-30T04:24:57.637Z,5.60
2018-09-30T04:27:26.147Z,5.60
2018-09-30T04:29:54.407Z,5.60
2018-09-30T04:32:22.739Z,5.40
2018-09-30T04:34:51.037Z,5.30
2018-09-30T04:37:19.373Z,5.20
2018-09-30T04:39:47.648Z,5.10
2018-09-30T04:42:15.938Z,4.30
2018-09-30T04:44:44.273Z,3.40
2018-09-30T04:47:12.643Z,3.00
2018-09-30T04:49:40.926Z,2.90
2018-09-30T04:52:09.193Z,3.00
2018-09-30T04:54:37.478Z,3.40
2018-09-30T04:57:05.732Z,3.90
2018-09-30T04:59:34.027Z,4.30
2018-09-30T05:02:02.373Z,4.00
2018-09-30T05:04:30.707Z,3.50
2018-09-30T05:06:58.995Z,3.00
2018-09-30T05:09:27.272Z,2.90
2018-09-30T05:11:55.603Z,3.30
2018-09-30T05:14:23.903Z,3.50
2018-09-30T05:16:52.188Z,3.80
2018-09-30T05:19:20.486Z,3.90
2018-09-30T05:21:48.986Z,3.50
2018-09-30T05:24:17.377Z,3.20
2018-09-30T05:26:45.685Z,3.10
2018-09-30T05:29:14.654Z,3.00
2018-09-30T05:31:43.552Z,2.90
2018-09-30T05:34:12.341Z,3.20
2018-09-30T05:36:40.976Z,3.60
2018-09-30T05:39:11.557Z,4.00
2018-09-30T05:41:41.063Z,4.30
2018-09-30T05:44:11.227Z,4.30
2018-09-30T05:46:40.592Z,4.30
2018-09-30T05:49:10.227Z,4.50
2018-09-30T05:51:39.474Z,4.70
2018-09-30T05:54:08.269Z,4.90
2018-09-30T05:56:37.382Z,4.90
2018-09-30T05:59:06.585Z,5.00
2018-09-30T06:01:35.781Z,5.10
2018-09-30T06:04:05.038Z,5.20
2018-09-30T06:06:34.124Z,5.30
2018-09-30T06:09:03.473Z,5.10
2018-09-30T06:11:32.675Z,5.00
2018-09-30T06:14:01.795Z,5.10
2018-09-30T06:16:30.660Z,5.10
2018-09-30T06:18:59.840Z,5.10
2018-09-30T06:21:29.372Z,5.10
2018-09-30T06:23:58.871Z,5.00
2018-09-30T06:26:28.177Z,4.90
2018-09-30T06:28:57.155Z,4.90
2018-09-30T06:31:27.211Z,4.70
2018-09-30T06:36:49.083Z,5.40
2018-09-30T06:39:18.493Z,5.70
2018-09-30T06:41:47.030Z,6.00
2018-09-30T06:44:15.341Z,6.10
2018-09-30T06:46:43.818Z,6.20
2018-09-30T06:49:12.307Z,6.30
2018-09-30T06:51:40.680Z,6.40
2018-09-30T06:54:08.993Z,6.50
2018-09-30T06:56:37.352Z,6.60
2018-09-30T06:59:05.740Z,6.70
2018-09-30T07:01:34.090Z,6.70
2018-09-30T07:04:02.456Z,6.80
2018-09-30T07:09:07.060Z,6.90
2018-09-30T07:11:35.789Z,6.90
2018-09-30T07:14:04.055Z,6.60
2018-09-30T07:16:32.622Z,6.10
2018-09-30T07:19:00.949Z,5.90
2018-09-30T07:21:29.221Z,6.00
2018-09-30T07:23:57.520Z,6.10
2018-09-30T07:26:25.810Z,6.30
2018-09-30T07:28:54.408Z,6.40
2018-09-30T07:31:22.725Z,6.40
2018-09-30T07:33:51.149Z,6.60
2018-09-30T07:36:19.371Z,6.80
2018-09-30T07:38:47.614Z,6.80
2018-09-30T07:41:15.892Z,6.90
2018-09-30T07:43:44.156Z,7.20
2018-09-30T07:46:12.485Z,7.50
2018-09-30T07:48:40.819Z,7.80
2018-09-30T07:51:09.113Z,7.90
2018-09-30T07:53:37.434Z,7.80
2018-09-30T07:56:05.678Z,7.70
2018-09-30T07:58:33.937Z,7.90
2018-09-30T08:01:02.196Z,8.10
2018-09-30T08:03:30.581Z,8.40
2018-09-30T08:05:58.912Z,9.40
2018-09-30T08:08:27.249Z,9.70
2018-09-30T08:10:55.597Z,9.50
2018-09-30T08:13:23.884Z,9.30
2018-09-30T08:15:52.203Z,9.10
2018-09-30T08:18:20.496Z,9.10
2018-09-30T08:20:48.798Z,9.20
2018-09-30T08:23:17.116Z,9.30
2018-09-30T08:25:45.415Z,9.60
2018-09-30T08:28:14.903Z,9.50
2018-09-30T08:30:43.374Z,9.60
2018-09-30T08:33:11.568Z,9.80
2018-09-30T08:35:39.833Z,9.80
2018-09-30T08:38:13.539Z,9.90
2018-09-30T08:40:47.212Z,10.10
2018-09-30T08:43:19.572Z,10.20
2018-09-30T08:45:47.917Z,10.40
2018-09-30T08:48:16.262Z,11.10
2018-09-30T08:50:44.624Z,10.90
2018-09-30T08:53:12.873Z,10.80
2018-09-30T08:55:41.197Z,10.60
2018-09-30T08:58:09.455Z,10.80
2018-09-30T09:00:37.774Z,11.20
2018-09-30T09:03:06.083Z,11.00
2018-09-30T09:05:34.306Z,11.80
2018-09-30T09:08:02.725Z,11.70
2018-09-30T09:10:31.025Z,12.90
2018-09-30T09:12:59.677Z,13.30
2018-09-30T09:15:28.038Z,13.10
2018-09-30T09:17:56.350Z,13.00
2018-09-30T09:20:24.601Z,11.70
2018-09-30T09:22:53.057Z,11.60
2018-09-30T09:25:21.392Z,11.60
2018-09-30T09:27:49.706Z,11.70
2018-09-30T09:30:18.060Z,12.60
2018-09-30T09:32:46.343Z,13.40
2018-09-30T09:35:14.762Z,12.70
2018-09-30T09:37:42.965Z,12.00
2018-09-30T09:40:11.560Z,12.50
2018-09-30T09:42:39.932Z,12.60
2018-09-30T09:45:08.457Z,13.00
2018-09-30T09:47:36.698Z,13.70
2018-09-30T09:50:05.073Z,12.90
2018-09-30T09:52:33.454Z,13.10
2018-09-30T09:55:01.757Z,13.30
2018-09-30T09:57:30.003Z,14.20
2018-09-30T09:59:58.269Z,14.70
2018-09-30T10:02:28.539Z,15.30
2018-09-30T10:04:56.849Z,15.60
2018-09-30T10:07:25.121Z,15.90
2018-09-30T10:09:53.423Z,15.80
2018-09-30T10:12:21.716Z,16.10
2018-09-30T10:14:49.992Z,16.40
2018-09-30T10:17:18.305Z,16.60
2018-09-30T10:19:46.644Z,16.60
2018-09-30T10:22:14.919Z,16.80
2018-09-30T10:24:43.335Z,16.80
2018-09-30T10:27:11.711Z,16.90
2018-09-30T10:29:39.972Z,17.40
2018-09-30T10:32:08.279Z,17.40
2018-09-30T10:34:36.614Z,16.30
2018-09-30T10:37:04.929Z,15.40
2018-09-30T10:39:33.818Z,14.40
2018-09-30T10:42:02.622Z,14.50
2018-09-30T10:44:30.939Z,15.10
2018-09-30T10:46:59.232Z,15.60
2018-09-30T10:49:27.678Z,14.70
2018-09-30T10:51:56.000Z,14.50
2018-09-30T10:54:24.336Z,14.70
2018-09-30T10:56:52.710Z,14.90
2018-09-30T10:59:20.960Z,15.20
2018-09-30T11:01:49.323Z,15.80
2018-09-30T11:04:17.682Z,14.90
2018-09-30T11:06:52.611Z,14.90
2018-09-30T11:09:27.715Z,15.90
2018-09-30T11:12:02.679Z,15.20
2018-09-30T11:14:30.953Z,15.90
2018-09-30T11:16:59.322Z,15.70
2018-09-30T11:19:27.847Z,15.80
2018-09-30T11:21:57.180Z,15.30
2018-09-30T11:24:26.125Z,15.60
2018-09-30T11:26:54.439Z,15.10
2018-09-30T11:29:22.920Z,15.10
2018-09-30T11:31:51.382Z,15.30
2018-09-30T11:34:19.595Z,15.40
2018-09-30T11:37:00.889Z,15.40
2018-09-30T11:39:29.437Z,15.50
2018-09-30T11:41:57.773Z,15.40
2018-09-30T11:44:26.894Z,15.70
2018-09-30T11:46:55.197Z,16.40
2018-09-30T11:49:23.581Z,16.50
2018-09-30T11:51:51.930Z,15.80
2018-09-30T11:54:21.053Z,15.70
2018-09-30T11:56:49.373Z,16.10
2018-09-30T11:59:24.360Z,16.20
2018-09-30T12:01:52.804Z,15.60
2018-09-30T12:04:21.098Z,15.80
2018-09-30T12:06:49.441Z,16.50
2018-09-30T12:09:17.756Z,16.80
2018-09-30T12:11:46.082Z,17.30
2018-09-30T12:14:14.359Z,17.90
2018-09-30T12:16:42.682Z,16.60
2018-09-30T12:19:11.069Z,16.60
2018-09-30T12:21:39.408Z,17.00
2018-09-30T12:24:08.105Z,17.50
2018-09-30T12:26:36.619Z,17.20
2018-09-30T12:29:04.924Z,16.80
2018-09-30T12:31:33.338Z,17.10
2018-09-30T12:34:01.796Z,16.20
2018-09-30T12:36:30.123Z,16.60
2018-09-30T12:38:58.442Z,17.30
2018-09-30T12:41:26.917Z,17.50
2018-09-30T12:43:55.546Z,17.80
2018-09-30T12:46:23.944Z,17.00
2018-09-30T12:48:52.352Z,16.30
2018-09-30T12:51:20.928Z,16.00
2018-09-30T12:53:49.258Z,16.20
2018-09-30T12:56:19.283Z,16.80
2018-09-30T12:58:47.562Z,17.30
2018-09-30T13:01:16.022Z,17.70
2018-09-30T13:03:44.633Z,17.10
2018-09-30T13:06:14.065Z,17.20
2018-09-30T13:08:43.097Z,17.60
2018-09-30T13:11:11.432Z,18.00
2018-09-30T13:13:40.526Z,17.80
2018-09-30T13:16:08.901Z,17.20
2018-09-30T13:18:37.449Z,16.70
2018-09-30T13:21:06.176Z,16.50
2018-09-30T13:23:34.544Z,16.60
2018-09-30T13:26:02.937Z,16.60
2018-09-30T13:28:31.433Z,16.90
2018-09-30T13:31:00.157Z,17.60
2018-09-30T13:33:28.693Z,17.80
2018-09-30T13:35:57.444Z,16.80
2018-09-30T13:38:26.044Z,16.40
2018-09-30T13:40:54.509Z,16.20
2018-09-30T13:43:29.496Z,16.30
2018-09-30T13:45:58.069Z,16.70
2018-09-30T13:48:26.302Z,16.60
2018-09-30T13:50:54.992Z,16.10
2018-09-30T13:53:23.293Z,16.20
2018-09-30T13:55:51.601Z,16.10
2018-09-30T13:58:19.926Z,16.30
2018-09-30T14:00:48.328Z,16.40
2018-09-30T14:03:16.781Z,16.40
2018-09-30T14:05:45.189Z,16.20
2018-09-30T14:08:13.517Z,16.10
2018-09-30T14:10:41.793Z,16.20
2018-09-30T14:13:10.055Z,16.10
2018-09-30T14:15:38.513Z,16.20
2018-09-30T14:18:06.865Z,16.10
2018-09-30T14:20:35.163Z,16.20
2018-09-30T14:23:03.518Z,16.50
2018-09-30T14:25:31.904Z,16.90
2018-09-30T14:28:00.185Z,16.70
2018-09-30T14:30:28.640Z,16.30
2018-09-30T14:32:57.400Z,16.20
2018-09-30T14:35:25.829Z,16.20
2018-09-30T14:37:54.117Z,16.40
2018-09-30T14:40:22.387Z,16.90
2018-09-30T14:42:50.773Z,17.00
2018-09-30T14:45:19.444Z,16.90
2018-09-30T14:47:48.674Z,16.60
2018-09-30T14:50:16.948Z,16.60
2018-09-30T14:52:45.377Z,16.40
2018-09-30T14:55:13.711Z,16.70
2018-09-30T14:57:42.047Z,16.80
2018-09-30T15:00:10.438Z,16.70
2018-09-30T15:02:38.692Z,16.90
2018-09-30T15:05:07.305Z,16.40
2018-09-30T15:07:35.847Z,16.10
2018-09-30T15:10:04.179Z,16.10
2018-09-30T15:12:35.413Z,16.10
2018-09-30T15:15:04.669Z,16.30
2018-09-30T15:17:33.138Z,16.30
2018-09-30T15:20:01.618Z,16.10
2018-09-30T15:22:30.175Z,16.60
2018-09-30T15:24:58.727Z,16.40
2018-09-30T15:27:27.006Z,16.70
2018-09-30T15:29:55.799Z,16.30
2018-09-30T15:32:24.100Z,16.20
2018-09-30T15:34:52.601Z,16.20
2018-09-30T15:37:20.971Z,15.80
2018-09-30T15:39:49.321Z,15.90
2018-09-30T15:42:18.196Z,15.90
2018-09-30T15:44:47.579Z,15.70
2018-09-30T15:47:15.977Z,15.40
2018-09-30T15:49:44.289Z,15.30
2018-09-30T15:52:13.233Z,15.10
2018-09-30T15:54:41.818Z,15.10
2018-09-30T15:57:10.146Z,15.10
2018-09-30T15:59:38.491Z,15.00
2018-09-30T16:02:07.750Z,14.90
2018-09-30T16:04:36.254Z,15.00
2018-09-30T16:07:04.636Z,14.80
2018-09-30T16:09:32.924Z,14.80
2018-09-30T16:12:02.252Z,14.70
2018-09-30T16:14:30.560Z,14.70
2018-09-30T16:16:58.968Z,14.80
2018-09-30T16:19:27.269Z,14.80
2018-09-30T16:21:55.603Z,15.10
2018-09-30T16:24:24.097Z,14.90
2018-09-30T16:26:52.504Z,14.70
2018-09-30T16:29:20.896Z,14.80
2018-09-30T16:31:49.642Z,14.60
2018-09-30T16:34:17.967Z,14.60
2018-09-30T16:36:46.313Z,14.50
2018-09-30T16:39:14.588Z,14.40
2018-09-30T16:41:42.862Z,14.30
2018-09-30T16:44:11.211Z,14.30
2018-09-30T16:46:43.054Z,14.40
2018-09-30T16:49:11.478Z,14.40
2018-09-30T16:51:39.881Z,14.60
2018-09-30T16:54:08.248Z,14.60
2018-09-30T16:56:36.635Z,14.90
2018-09-30T16:59:05.081Z,14.90
2018-09-30T17:01:33.501Z,15.00
2018-09-30T17:04:01.923Z,15.10
2018-09-30T17:06:30.380Z,15.00
2018-09-30T17:08:58.692Z,15.10
2018-09-30T17:11:26.982Z,14.50
2018-09-30T17:13:55.295Z,14.50
2018-09-30T17:16:23.590Z,14.30
2018-09-30T17:18:51.903Z,14.40
2018-09-30T17:21:20.242Z,14.60
2018-09-30T17:23:49.625Z,15.00
2018-09-30T17:26:18.099Z,15.10
2018-09-30T17:28:46.405Z,15.30
2018-09-30T17:31:14.749Z,14.90
2018-09-30T17:33:43.050Z,14.40
2018-09-30T17:36:11.336Z,14.00
2018-09-30T17:38:39.686Z,14.00
2018-09-30T17:41:08.185Z,13.80
2018-09-30T17:43:36.513Z,13.60
2018-09-30T17:46:04.829Z,13.50
2018-09-30T17:48:33.178Z,13.20
2018-09-30T17:51:01.679Z,13.10
2018-09-30T17:53:29.896Z,13.30
2018-09-30T17:55:58.112Z,13.20
2018-09-30T17:58:26.425Z,13.00
2018-09-30T18:00:55.084Z,12.80
2018-09-30T18:03:23.490Z,12.90
2018-09-30T18:05:51.929Z,13.00
2018-09-30T18:08:20.305Z,12.90
2018-09-30T18:10:48.646Z,12.70
2018-09-30T18:13:17.020Z,12.60
2018-09-30T18:15:45.390Z,12.80
2018-09-30T18:18:13.877Z,12.70
2018-09-30T18:20:42.221Z,12.80
2018-09-30T18:23:10.462Z,13.10
2018-09-30T18:25:39.792Z,13.50
2018-09-30T18:28:08.321Z,13.70
2018-09-30T18:30:36.688Z,13.40
2018-09-30T18:33:04.977Z,13.50
2018-09-30T18:35:33.303Z,13.80
2018-09-30T18:38:02.496Z,13.20
2018-09-30T18:40:37.532Z,13.20
2018-09-30T18:43:06.286Z,13.10
2018-09-30T18:45:34.574Z,13.30
2018-09-30T18:48:02.856Z,13.10
2018-09-30T18:53:22.258Z,12.50
2018-09-30T18:55:50.812Z,12.40
2018-09-30T18:58:19.654Z,12.30
2018-09-30T19:00:48.058Z,12.10
2018-09-30T19:03:16.434Z,12.10
2018-09-30T19:05:45.091Z,12.00
2018-09-30T19:08:13.533Z,12.20
2018-09-30T19:10:42.570Z,12.60
2018-09-30T19:13:11.149Z,13.00
2018-09-30T19:15:39.536Z,12.80
2018-09-30T19:18:07.941Z,12.30
2018-09-30T19:20:36.417Z,12.40
2018-09-30T19:23:04.763Z,12.20
2018-09-30T19:25:33.083Z,12.00
2018-09-30T19:28:01.517Z,12.20
2018-09-30T19:30:29.872Z,12.30
2018-09-30T19:32:58.242Z,12.70
2018-09-30T19:35:26.639Z,13.00
2018-09-30T19:37:54.938Z,13.10
2018-09-30T19:40:23.298Z,13.40
2018-09-30T19:42:51.888Z,13.50
2018-09-30T19:45:20.455Z,13.40
2018-09-30T19:47:48.887Z,13.40
2018-09-30T19:50:17.430Z,13.50
2018-09-30T19:52:45.947Z,12.80
2018-09-30T19:55:14.402Z,12.30
2018-09-30T19:57:42.899Z,12.20
2018-09-30T20:00:11.373Z,11.90
2018-09-30T20:02:39.685Z,12.00
2018-09-30T20:05:08.069Z,12.20
2018-09-30T20:07:36.446Z,12.40
2018-09-30T20:10:04.905Z,12.60
2018-09-30T20:12:33.256Z,12.60
2018-09-30T20:15:01.670Z,12.80
2018-09-30T20:17:30.099Z,12.70
2018-09-30T20:19:58.642Z,12.60
2018-09-30T20:22:26.992Z,12.60
2018-09-30T20:24:55.358Z,12.70
2018-09-30T20:27:23.668Z,12.70
2018-09-30T20:29:52.313Z,12.70
2018-09-30T20:32:20.788Z,12.90
2018-09-30T20:34:49.337Z,13.10
2018-09-30T20:37:17.768Z,13.20
2018-09-30T20:39:46.174Z,12.90
2018-09-30T20:42:14.536Z,12.80
2018-09-30T20:44:42.812Z,13.10
2018-09-30T20:47:11.181Z,13.10
2018-09-30T20:49:39.439Z,13.00
2018-09-30T20:52:07.784Z,13.20
2018-09-30T20:54:36.073Z,13.50
2018-09-30T20:57:04.441Z,13.10
2018-09-30T20:59:32.752Z,12.50
2018-09-30T21:02:01.764Z,12.40
2018-09-30T21:04:30.043Z,11.80
2018-09-30T21:06:58.343Z,11.80
2018-09-30T21:09:26.637Z,11.80
2018-09-30T21:11:54.995Z,12.10
2018-09-30T21:14:23.352Z,12.40
2018-09-30T21:16:51.717Z,12.50
2018-09-30T21:19:19.949Z,12.70
2018-09-30T21:21:48.233Z,12.60
2018-09-30T21:24:16.531Z,12.30
2018-09-30T21:26:44.842Z,12.10
2018-09-30T21:29:13.763Z,12.20
2018-09-30T21:31:42.042Z,12.30
2018-09-30T21:34:10.366Z,12.40
2018-09-30T21:36:38.647Z,12.50
2018-09-30T21:39:09.432Z,12.50
2018-09-30T21:41:37.718Z,12.40
2018-09-30T21:44:06.037Z,12.10
2018-09-30T21:46:34.370Z,11.70
2018-09-30T21:49:02.663Z,11.60
2018-09-30T21:51:30.936Z,11.50
2018-09-30T21:53:59.250Z,11.10
2018-09-30T21:56:27.555Z,11.00
2018-09-30T21:58:56.256Z,11.30
2018-09-30T22:01:24.636Z,11.60
2018-09-30T22:03:52.912Z,11.20
2018-09-30T22:06:21.236Z,11.40
2018-09-30T22:08:49.511Z,11.30
2018-09-30T22:11:17.825Z,11.10
2018-09-30T22:13:46.164Z,11.20
2018-09-30T22:16:14.479Z,11.10
2018-09-30T22:18:42.857Z,11.00
2018-09-30T22:21:11.171Z,10.90
2018-09-30T22:23:39.467Z,10.80
2018-09-30T22:26:07.780Z,10.80
2018-09-30T22:28:36.277Z,10.90
2018-09-30T22:31:04.598Z,10.80
2018-09-30T22:33:32.908Z,10.80
2018-09-30T22:36:01.226Z,10.90
2018-09-30T22:38:29.921Z,10.80
2018-09-30T22:40:58.250Z,10.90
2018-09-30T22:43:26.522Z,10.90
2018-09-30T22:45:54.822Z,11.00
2018-09-30T22:48:23.111Z,11.10
2018-09-30T22:50:51.431Z,11.40
2018-09-30T22:53:19.733Z,11.30
2018-09-30T22:55:48.079Z,11.40
2018-09-30T22:58:16.354Z,11.40
2018-09-30T23:00:44.621Z,11.40
2018-09-30T23:03:12.919Z,11.70
2018-09-30T23:05:41.222Z,11.60
2018-09-30T23:08:09.529Z,11.40
2018-09-30T23:10:37.814Z,11.10
2018-09-30T23:13:06.419Z,11.20
2018-09-30T23:15:34.753Z,11.30
2018-09-30T23:18:03.152Z,11.40
2018-09-30T23:20:31.488Z,11.50
2018-09-30T23:22:59.863Z,11.80
2018-09-30T23:25:28.181Z,11.80
2018-09-30T23:27:56.458Z,11.90
2018-09-30T23:30:24.748Z,11.90
2018-09-30T23:32:53.108Z,11.80
2018-09-30T23:35:21.442Z,11.90
2018-09-30T23:37:49.773Z,11.60
2018-09-30T23:40:18.123Z,11.90
2018-09-30T23:42:46.433Z,11.40
2018-09-30T23:45:14.827Z,11.30
2018-09-30T23:47:43.175Z,11.20
2018-09-30T23:50:11.467Z,11.20
2018-09-30T23:52:39.804Z,11.30
2018-09-30T23:55:08.121Z,11.60
2018-09-30T23:57:36.489Z,11.70
